Etusivu
METAR-TAF:

METAR-TAF

Lentoasemat :

Sotilaslentoasema

Linköping, Ruotsi

Leveyspiiri: 58-24N, Pituuspiiri: 015-31E, korkeus merenpinnasta: 93 m

Tämänhetkinen sää

Tämä raportti tehtiin 30 minuuttia sitten, kello 20.20 UTC
Tuuli 8 kn idästä
Lämpötila 12°C
Kosteus 44%
Ilmanpaine 1017 hPa
Näkyvyys 10 km tai enemmän

METAR: ESCF 242020Z AUTO 09008KT 9999 OVC100/// 12/00 Q1017

Aika: 22:50 (20:50 UTC)

Sääennuste

Tämä raportti tehtiin 9 tuntia ja 20 minuuttia sitten, kello 11.30 UTC
Ennuste voimassa 24. päivästä klo 12 UTC - 24. päivään klo 15 UTC
Tuuli 23 kn idästä/kaakosta puuskistuen 31 kn:hen
Näkyvyys 10 km tai enemmän
ei pilviä alle 1500 m:ssä eikä cumulonimbus-pilviä
Ajoittain
24. päivästä klo 12 UTC - 24. päivään klo 15 UTC
Tuuli 25 kn idästä/kaakosta puuskistuen 33 kn:hen

TAF: ESCF 241130Z 2412/2415 12023G31KT CAVOK TEMPO 2412/2415 12025G33KT RMK MIL

Säähavainnot ja -ennusteet yli 4000 lentoasemalta (METAR- ja TAF-raportit).

Käytössä olevat sääasemat on merkitty karttaan keltaisilla ja punaisilla pisteillä.

Aseta hiiri pisteen päälle nähdäksesi sääaseman nimen.

Klikkaa sitten nähdäksesi säähavainnot ja -ennusteet.

Kartan vaihtaminen: klikkaa mustalla rastilla varustettuja vihreitä pisteitä, niin voit zoomata sisään; viivalla varustettua vihreää pistettä, niin voit zoomata ulos tai vihreitä nuolia, niin pääset viereisille kartoille.


METAR-TAF: